Glen Rose, Texas
Current Conditions -  °F | °C
As of 12:15 AM on Thursday 29 Jan 2015 (Local Time) from KGDJ Reporting Station
Clear Clear  
Wind Chill: 66°   Ceiling: Unl
Heat Index: 66°   Visibility: 10mi
Dew Point: 40°   Wind: 8mph
Humidity: 38%   Direction: 200°SSW
Pressure: 30.07"   Gusts: NA
Location:  32.23°N, 97.76°W
Report Text: KGDJ 290615Z AUTO 20007KT 10SM CLR 19/04 A3007 RMK AO2 T01900042
Loading
Personal Weather Stations






























Interactive Weather Map New forecast layout! Learn more

10-Day Weather Forecast

Advertisements
Track Severe Weather on mobile